createdAt,value
2022-10-31T00:00:28.121Z,13.49
2022-10-31T00:02:32.859Z,13.50
2022-10-31T00:04:37.707Z,13.49
2022-10-31T00:06:42.335Z,13.48
2022-10-31T00:08:47.068Z,13.51
2022-10-31T00:10:51.700Z,13.51
2022-10-31T00:12:56.564Z,13.48
2022-10-31T00:15:01.376Z,13.46
2022-10-31T00:17:06.041Z,13.46
2022-10-31T00:19:10.757Z,13.44
2022-10-31T00:21:15.600Z,13.35
2022-10-31T00:23:20.228Z,13.28
2022-10-31T00:25:25.415Z,13.29
2022-10-31T00:27:30.188Z,13.26
2022-10-31T00:29:34.940Z,13.18
2022-10-31T00:31:39.618Z,13.11
2022-10-31T00:33:45.123Z,13.08
2022-10-31T00:35:53.252Z,13.11
2022-10-31T00:37:57.949Z,13.14
2022-10-31T00:40:02.720Z,13.18
2022-10-31T00:42:07.815Z,13.18
2022-10-31T00:44:13.054Z,13.20
2022-10-31T00:46:18.194Z,13.25
2022-10-31T00:48:22.940Z,13.28
2022-10-31T00:50:27.812Z,13.29
2022-10-31T00:52:32.689Z,13.30
2022-10-31T00:54:37.293Z,13.34
2022-10-31T00:56:41.945Z,13.35
2022-10-31T00:58:46.971Z,13.33
2022-10-31T01:00:51.985Z,13.31
2022-10-31T01:02:57.136Z,13.30
2022-10-31T01:05:01.996Z,13.28
2022-10-31T01:07:06.651Z,13.26
2022-10-31T01:09:11.355Z,13.26
2022-10-31T01:11:20.666Z,13.24
2022-10-31T01:13:25.351Z,13.25
2022-10-31T01:15:30.050Z,13.21
2022-10-31T01:17:35.090Z,13.20
2022-10-31T01:19:40.015Z,13.25
2022-10-31T01:21:44.750Z,13.29
2022-10-31T01:23:49.951Z,13.32
2022-10-31T01:26:06.623Z,13.36
2022-10-31T01:28:11.366Z,13.39
2022-10-31T01:30:16.369Z,13.42
2022-10-31T01:32:20.975Z,13.44
2022-10-31T01:34:25.654Z,13.44
2022-10-31T01:36:32.195Z,13.46
2022-10-31T01:38:36.897Z,13.47
2022-10-31T01:40:41.501Z,13.47
2022-10-31T01:42:46.181Z,13.44
2022-10-31T01:44:57.761Z,13.41
2022-10-31T01:47:06.401Z,13.37
2022-10-31T01:49:18.066Z,13.34
2022-10-31T01:51:27.035Z,13.33
2022-10-31T01:53:32.560Z,13.34
2022-10-31T01:55:40.498Z,13.34
2022-10-31T01:57:48.865Z,13.32
2022-10-31T02:00:00.513Z,13.29
2022-10-31T02:02:05.347Z,13.28
2022-10-31T02:04:10.794Z,13.30
2022-10-31T02:06:28.489Z,13.31
2022-10-31T02:08:36.126Z,13.28
2022-10-31T02:10:41.256Z,13.23
2022-10-31T02:12:47.443Z,13.22
2022-10-31T02:14:53.321Z,13.20
2022-10-31T02:16:58.302Z,13.17
2022-10-31T02:19:03.517Z,13.15
2022-10-31T02:21:16.105Z,13.15
2022-10-31T02:24:00.690Z,13.17
2022-10-31T02:26:32.404Z,13.16
2022-10-31T02:29:03.281Z,13.16
2022-10-31T02:31:21.531Z,13.17
2022-10-31T02:33:31.876Z,13.14
2022-10-31T02:35:47.573Z,13.11
2022-10-31T02:37:58.794Z,13.10
2022-10-31T02:40:12.166Z,13.10
2022-10-31T02:42:44.529Z,13.12
2022-10-31T02:44:56.868Z,13.11
2022-10-31T02:47:06.287Z,13.11
2022-10-31T02:49:19.424Z,13.10
2022-10-31T02:51:24.388Z,13.10
2022-10-31T02:53:32.479Z,13.06
2022-10-31T02:55:52.464Z,13.05
2022-10-31T02:58:03.513Z,13.01
2022-10-31T03:00:10.717Z,12.99
2022-10-31T03:02:52.879Z,12.94
2022-10-31T03:05:12.812Z,12.89
2022-10-31T03:07:26.834Z,12.87
2022-10-31T03:09:43.155Z,12.91
2022-10-31T03:11:58.724Z,12.97
2022-10-31T03:14:11.479Z,13.02
2022-10-31T03:16:21.533Z,13.06
2022-10-31T03:18:30.578Z,13.12
2022-10-31T03:20:38.972Z,13.15
2022-10-31T03:22:45.396Z,13.16
2022-10-31T03:24:51.033Z,13.15
2022-10-31T03:27:00.606Z,13.17
2022-10-31T03:29:11.387Z,13.20
2022-10-31T03:31:23.387Z,13.23
2022-10-31T03:33:32.513Z,13.24
2022-10-31T03:35:40.299Z,13.22
2022-10-31T03:37:46.482Z,13.20
2022-10-31T03:39:53.577Z,13.21
2022-10-31T03:42:05.694Z,13.15
2022-10-31T03:44:13.553Z,13.12
2022-10-31T03:46:18.716Z,13.09
2022-10-31T03:48:24.567Z,13.09
2022-10-31T03:50:37.763Z,13.06
2022-10-31T03:52:46.777Z,13.00
2022-10-31T03:54:59.822Z,12.91
2022-10-31T03:57:13.451Z,12.82
2022-10-31T03:59:23.501Z,12.75
2022-10-31T04:01:31.071Z,12.70
2022-10-31T04:03:38.513Z,12.65
2022-10-31T04:05:47.299Z,12.60
2022-10-31T04:07:56.150Z,12.57
2022-10-31T04:10:04.010Z,12.55
2022-10-31T04:12:12.142Z,12.58
2022-10-31T04:14:35.548Z,12.59
2022-10-31T04:16:42.382Z,12.59
2022-10-31T04:18:47.221Z,12.58
2022-10-31T04:21:00.122Z,12.54
2022-10-31T04:23:07.249Z,12.51
2022-10-31T04:25:13.570Z,12.47
2022-10-31T04:27:18.188Z,12.42
2022-10-31T04:29:22.821Z,12.36
2022-10-31T04:31:27.663Z,12.34
2022-10-31T04:33:32.314Z,12.26
2022-10-31T04:35:37.244Z,12.20
2022-10-31T04:37:41.898Z,12.17
2022-10-31T04:39:46.542Z,12.17
2022-10-31T04:42:23.236Z,12.13
2022-10-31T04:44:27.959Z,12.07
2022-10-31T04:46:32.799Z,11.97
2022-10-31T04:48:37.532Z,11.89
2022-10-31T04:50:43.956Z,11.81
2022-10-31T04:52:48.932Z,11.75
2022-10-31T04:54:55.647Z,11.70
2022-10-31T04:57:26.538Z,11.66
2022-10-31T04:59:33.178Z,11.66
2022-10-31T05:01:38.044Z,11.67
2022-10-31T05:03:42.811Z,11.67
2022-10-31T05:05:47.740Z,11.69
2022-10-31T05:07:52.512Z,11.70
2022-10-31T05:09:57.954Z,11.72
2022-10-31T05:12:02.598Z,11.72
2022-10-31T05:14:27.562Z,11.79
2022-10-31T05:16:55.166Z,11.87
2022-10-31T05:19:18.495Z,11.92
2022-10-31T05:22:01.372Z,11.96
2022-10-31T05:24:08.304Z,11.98
2022-10-31T05:26:13.197Z,11.97
2022-10-31T05:28:17.928Z,11.94
2022-10-31T05:30:24.272Z,11.91
2022-10-31T05:32:28.881Z,11.90
2022-10-31T05:34:51.780Z,11.90
2022-10-31T05:37:28.428Z,11.90
2022-10-31T05:39:34.005Z,11.90
2022-10-31T05:41:40.566Z,11.90
2022-10-31T05:43:51.683Z,11.95
2022-10-31T05:45:59.104Z,12.01
2022-10-31T05:48:22.521Z,12.08
2022-10-31T05:50:58.925Z,12.09
2022-10-31T05:53:05.994Z,12.11
2022-10-31T05:55:15.343Z,12.14
2022-10-31T05:57:28.906Z,12.19
2022-10-31T05:59:33.596Z,12.21
2022-10-31T06:01:38.845Z,12.22
2022-10-31T06:03:45.494Z,12.22
2022-10-31T06:05:55.199Z,12.25
2022-10-31T06:08:03.487Z,12.28
2022-10-31T06:10:10.192Z,12.29
2022-10-31T06:12:14.990Z,12.29
2022-10-31T06:14:50.552Z,12.30
2022-10-31T06:16:56.570Z,12.31
2022-10-31T06:19:19.918Z,12.32
2022-10-31T06:21:24.973Z,12.34
2022-10-31T06:23:29.811Z,12.34
2022-10-31T06:26:01.790Z,12.33
2022-10-31T06:28:07.535Z,12.33
2022-10-31T06:30:32.396Z,12.32
2022-10-31T06:32:37.049Z,12.33
2022-10-31T06:34:42.373Z,12.36
2022-10-31T06:36:48.241Z,12.42
2022-10-31T06:38:53.243Z,12.45
2022-10-31T06:41:02.687Z,12.45
2022-10-31T06:43:13.234Z,12.44
2022-10-31T06:45:17.999Z,12.47
2022-10-31T06:48:16.018Z,12.48
2022-10-31T06:50:36.308Z,12.52
2022-10-31T06:52:42.168Z,12.55
2022-10-31T06:54:47.044Z,12.61
2022-10-31T06:56:51.816Z,12.67
2022-10-31T06:58:56.518Z,12.74
2022-10-31T07:01:21.274Z,12.77
2022-10-31T07:03:26.574Z,12.80
2022-10-31T07:05:32.207Z,12.85
2022-10-31T07:07:40.008Z,12.90
2022-10-31T07:09:45.372Z,12.96
2022-10-31T07:11:55.997Z,12.94
2022-10-31T07:14:01.385Z,12.91
2022-10-31T07:16:07.955Z,12.94
2022-10-31T07:18:14.352Z,12.93
2022-10-31T07:20:20.196Z,12.97
2022-10-31T07:22:25.341Z,13.00
2022-10-31T07:24:30.668Z,13.05
2022-10-31T07:26:53.673Z,13.07
2022-10-31T07:28:58.477Z,13.10
2022-10-31T07:31:04.284Z,13.12
2022-10-31T07:33:09.337Z,13.08
2022-10-31T07:35:32.644Z,13.06
2022-10-31T07:37:38.649Z,13.06
2022-10-31T07:39:43.650Z,13.11
2022-10-31T07:41:50.957Z,13.16
2022-10-31T07:43:58.279Z,13.21
2022-10-31T07:46:31.838Z,13.24
2022-10-31T07:49:14.228Z,13.24
2022-10-31T07:51:45.528Z,13.27
2022-10-31T07:53:51.181Z,13.31
2022-10-31T07:56:02.863Z,13.39
2022-10-31T07:58:11.911Z,13.46
2022-10-31T08:00:18.030Z,13.55
2022-10-31T08:02:27.490Z,13.64
2022-10-31T08:05:00.248Z,13.68
2022-10-31T08:07:27.876Z,13.66
2022-10-31T08:09:39.035Z,13.59
2022-10-31T08:11:55.990Z,13.56
2022-10-31T08:14:00.942Z,13.58
2022-10-31T08:16:06.247Z,13.57
2022-10-31T08:18:15.645Z,13.56
2022-10-31T08:20:20.956Z,13.53
2022-10-31T08:22:26.980Z,13.53
2022-10-31T08:24:31.721Z,13.56
2022-10-31T08:26:36.694Z,13.57
2022-10-31T08:28:42.235Z,13.62
2022-10-31T08:30:48.771Z,13.63
2022-10-31T08:33:14.671Z,13.64
2022-10-31T08:36:00.349Z,13.66
2022-10-31T08:38:25.345Z,13.66
2022-10-31T08:40:31.889Z,13.68
2022-10-31T08:42:37.130Z,13.72
2022-10-31T08:44:42.180Z,13.75
2022-10-31T08:46:47.534Z,13.77
2022-10-31T08:48:52.724Z,13.77
2022-10-31T08:51:00.033Z,13.79
2022-10-31T08:53:06.714Z,13.81
2022-10-31T08:55:12.011Z,13.85
2022-10-31T08:57:39.777Z,13.86
2022-10-31T08:59:45.180Z,13.86
2022-10-31T09:01:58.746Z,13.86
2022-10-31T09:04:03.740Z,13.89
2022-10-31T09:06:11.708Z,13.94
2022-10-31T09:08:20.003Z,13.98
2022-10-31T09:10:29.710Z,14.00
2022-10-31T09:12:35.274Z,14.01
2022-10-31T09:15:00.258Z,14.02
2022-10-31T09:17:23.595Z,14.03
2022-10-31T09:19:51.315Z,14.03
2022-10-31T09:22:07.597Z,14.03
2022-10-31T09:24:12.642Z,13.99
2022-10-31T09:26:19.474Z,13.95
2022-10-31T09:28:56.396Z,13.95
2022-10-31T09:31:02.305Z,13.97
2022-10-31T09:33:39.009Z,14.00
2022-10-31T09:36:03.794Z,14.01
2022-10-31T09:38:13.357Z,14.02
2022-10-31T09:40:20.293Z,14.06
2022-10-31T09:42:49.361Z,14.09
2022-10-31T09:45:07.870Z,14.09
2022-10-31T09:47:26.601Z,14.13
2022-10-31T09:50:07.902Z,14.17
2022-10-31T09:52:19.632Z,14.20
2022-10-31T09:54:31.743Z,14.13
2022-10-31T09:56:38.387Z,14.11
2022-10-31T09:58:45.807Z,14.14
2022-10-31T10:00:50.797Z,14.15
2022-10-31T10:03:02.814Z,14.19
2022-10-31T10:05:12.773Z,14.20
2022-10-31T10:07:25.808Z,14.16
2022-10-31T10:09:50.692Z,14.13
2022-10-31T10:12:23.785Z,14.09
2022-10-31T10:14:39.489Z,14.08
2022-10-31T10:16:58.388Z,14.10
2022-10-31T10:19:15.605Z,14.15
2022-10-31T10:21:30.138Z,14.18
2022-10-31T10:23:50.644Z,14.15
2022-10-31T10:26:10.179Z,14.13
2022-10-31T10:28:22.954Z,14.16
2022-10-31T10:30:34.230Z,14.22
2022-10-31T10:32:49.294Z,14.27
2022-10-31T10:35:01.680Z,14.31
2022-10-31T10:37:14.545Z,14.35
2022-10-31T10:39:23.882Z,14.37
2022-10-31T10:41:34.538Z,14.38
2022-10-31T10:43:40.202Z,14.40
2022-10-31T10:45:50.175Z,14.43
2022-10-31T10:48:07.392Z,14.49
2022-10-31T10:50:18.364Z,14.54
2022-10-31T10:52:43.200Z,14.55
2022-10-31T10:55:18.397Z,14.51
2022-10-31T10:57:44.226Z,14.42
2022-10-31T10:59:49.564Z,14.36
2022-10-31T11:01:54.893Z,14.36
2022-10-31T11:03:59.710Z,14.39
2022-10-31T11:06:19.745Z,14.39
2022-10-31T11:08:29.156Z,14.39
2022-10-31T11:10:34.132Z,14.44
2022-10-31T11:12:39.042Z,14.48
2022-10-31T11:14:49.524Z,14.49
2022-10-31T11:17:07.719Z,14.49
2022-10-31T11:19:18.145Z,14.50
2022-10-31T11:21:29.244Z,14.50
2022-10-31T11:23:34.530Z,14.53
2022-10-31T11:25:39.323Z,14.55
2022-10-31T11:27:44.029Z,14.54
2022-10-31T11:29:48.727Z,14.56
2022-10-31T11:31:55.729Z,14.57
2022-10-31T11:34:03.143Z,14.58
2022-10-31T11:36:22.144Z,14.59
2022-10-31T11:38:31.466Z,14.59
2022-10-31T11:40:36.236Z,14.60
2022-10-31T11:42:44.109Z,14.60
2022-10-31T11:44:49.525Z,14.62
2022-10-31T11:46:55.988Z,14.63
2022-10-31T11:49:01.545Z,14.63
2022-10-31T11:51:07.082Z,14.58
2022-10-31T11:53:22.018Z,14.59
2022-10-31T11:55:35.762Z,14.60
2022-10-31T11:57:47.772Z,14.60
2022-10-31T11:59:56.397Z,14.63
2022-10-31T12:02:19.024Z,14.66
2022-10-31T12:04:31.416Z,14.72
2022-10-31T12:06:37.725Z,14.77
2022-10-31T12:08:43.488Z,14.79
2022-10-31T12:10:57.297Z,14.78
2022-10-31T12:13:17.413Z,14.82
2022-10-31T12:15:32.115Z,14.80
2022-10-31T12:17:43.322Z,14.71
2022-10-31T12:19:58.447Z,14.70
2022-10-31T12:22:11.396Z,14.73
2022-10-31T12:24:29.270Z,14.77
2022-10-31T12:26:41.407Z,14.77
2022-10-31T12:29:01.693Z,14.76
2022-10-31T12:31:18.875Z,14.78
2022-10-31T12:33:45.131Z,14.74
2022-10-31T12:35:59.647Z,14.68
2022-10-31T12:38:26.834Z,14.65
2022-10-31T12:40:47.666Z,14.67
2022-10-31T12:43:08.695Z,14.63
2022-10-31T12:45:29.257Z,14.57
2022-10-31T12:47:56.860Z,14.50
2022-10-31T12:50:14.323Z,14.44
2022-10-31T12:52:36.531Z,14.42
2022-10-31T12:54:55.873Z,14.46
2022-10-31T12:57:09.453Z,14.47
2022-10-31T12:59:21.458Z,14.50
2022-10-31T13:01:31.463Z,14.49
2022-10-31T13:03:43.488Z,14.47
2022-10-31T13:05:52.895Z,14.44
2022-10-31T13:08:01.296Z,14.45
2022-10-31T13:10:11.521Z,14.49
2022-10-31T13:12:19.920Z,14.51
2022-10-31T13:14:28.632Z,14.47
2022-10-31T13:16:39.447Z,14.43
2022-10-31T13:18:48.809Z,14.35
2022-10-31T13:20:56.282Z,14.28
2022-10-31T13:23:29.851Z,14.24
2022-10-31T13:25:43.392Z,14.25
2022-10-31T13:27:55.631Z,14.25
2022-10-31T13:30:05.259Z,14.24
2022-10-31T13:32:11.258Z,14.20
2022-10-31T13:34:28.421Z,14.13
2022-10-31T13:36:38.421Z,14.08
2022-10-31T13:38:49.489Z,14.07
2022-10-31T13:41:00.716Z,14.03
2022-10-31T13:43:24.781Z,13.99
2022-10-31T13:45:29.480Z,13.99
2022-10-31T13:47:34.168Z,13.99
2022-10-31T13:49:42.274Z,14.01
2022-10-31T13:51:46.927Z,14.00
2022-10-31T13:54:01.999Z,14.00
2022-10-31T13:56:16.380Z,14.04
2022-10-31T13:58:26.711Z,14.09
2022-10-31T14:00:31.680Z,14.11
2022-10-31T14:02:37.753Z,14.12
2022-10-31T14:04:49.812Z,14.11
2022-10-31T14:07:11.304Z,14.11
2022-10-31T14:09:29.511Z,14.13
2022-10-31T14:11:37.075Z,14.14
2022-10-31T14:13:46.661Z,14.15
2022-10-31T14:15:57.860Z,14.13
2022-10-31T14:18:05.727Z,14.10
2022-10-31T14:20:39.446Z,14.08
2022-10-31T14:22:44.445Z,14.11
2022-10-31T14:24:49.207Z,14.15
2022-10-31T14:26:56.545Z,14.17
2022-10-31T14:29:02.978Z,14.19
2022-10-31T14:31:30.776Z,14.21
2022-10-31T14:33:35.978Z,14.21
2022-10-31T14:35:52.801Z,14.17
2022-10-31T14:38:23.341Z,14.18
2022-10-31T14:40:33.980Z,14.18
2022-10-31T14:42:51.371Z,14.17
2022-10-31T14:45:15.956Z,14.16
2022-10-31T14:47:29.853Z,14.15
2022-10-31T14:50:08.017Z,14.17
2022-10-31T14:52:15.964Z,14.15
2022-10-31T14:54:26.803Z,14.13
2022-10-31T14:56:34.574Z,14.11
2022-10-31T14:58:44.302Z,14.13
2022-10-31T15:00:49.262Z,14.15
2022-10-31T15:03:13.125Z,14.15
2022-10-31T15:05:19.368Z,14.16
2022-10-31T15:07:27.572Z,14.13
2022-10-31T15:09:34.418Z,14.11
2022-10-31T15:11:40.578Z,14.11
2022-10-31T15:13:47.298Z,14.07
2022-10-31T15:15:53.783Z,13.99
2022-10-31T15:18:01.809Z,13.90
2022-10-31T15:20:08.783Z,13.78
2022-10-31T15:22:17.548Z,13.71
2022-10-31T15:24:24.291Z,13.68
2022-10-31T15:26:33.407Z,13.63
2022-10-31T15:28:38.049Z,13.64
2022-10-31T15:30:55.779Z,13.62
2022-10-31T15:33:00.479Z,13.59
2022-10-31T15:35:11.605Z,13.57
2022-10-31T15:37:17.633Z,13.58
2022-10-31T15:39:22.378Z,13.60
2022-10-31T15:41:35.875Z,13.60
2022-10-31T15:43:45.444Z,13.65
2022-10-31T15:45:50.278Z,13.68
2022-10-31T15:47:59.730Z,13.70
2022-10-31T15:50:18.952Z,13.71
2022-10-31T15:52:30.449Z,13.72
2022-10-31T15:54:36.193Z,13.69
2022-10-31T15:56:44.381Z,13.69
2022-10-31T15:58:51.368Z,13.72
2022-10-31T16:01:04.198Z,13.72
2022-10-31T16:03:19.176Z,13.71
2022-10-31T16:05:24.322Z,13.72
2022-10-31T16:07:30.012Z,13.72
2022-10-31T16:09:34.709Z,13.72
2022-10-31T16:11:40.495Z,13.73
2022-10-31T16:13:56.876Z,13.73
2022-10-31T16:16:32.892Z,13.75
2022-10-31T16:18:30.534Z,13.77
2022-10-31T16:20:36.078Z,13.76
2022-10-31T16:22:41.531Z,13.74
2022-10-31T16:24:51.565Z,13.72
2022-10-31T16:27:03.057Z,13.68
2022-10-31T16:29:29.216Z,13.66
2022-10-31T16:31:40.394Z,13.65
2022-10-31T16:33:45.236Z,13.65
2022-10-31T16:35:55.794Z,13.63
2022-10-31T16:38:00.868Z,13.60
2022-10-31T16:40:06.573Z,13.56
2022-10-31T16:42:11.602Z,13.57
2022-10-31T16:44:22.952Z,13.56
2022-10-31T16:46:28.622Z,13.55
2022-10-31T16:48:33.463Z,13.55
2022-10-31T16:50:39.664Z,13.54
2022-10-31T16:53:08.251Z,13.53
2022-10-31T16:55:14.159Z,13.52
2022-10-31T16:57:27.601Z,13.51
2022-10-31T16:59:32.979Z,13.49
2022-10-31T17:01:38.875Z,13.47
2022-10-31T17:03:44.161Z,13.46
2022-10-31T17:05:49.363Z,13.45
2022-10-31T17:07:54.112Z,13.44
2022-10-31T17:09:59.387Z,13.44
2022-10-31T17:12:05.645Z,13.42
2022-10-31T17:14:11.146Z,13.40
2022-10-31T17:16:16.359Z,13.37
2022-10-31T17:18:26.907Z,13.37
2022-10-31T17:20:33.682Z,13.37
2022-10-31T17:24:45.396Z,13.37
2022-10-31T17:26:50.280Z,13.37
2022-10-31T17:28:54.968Z,13.35
2022-10-31T17:30:59.754Z,13.32
2022-10-31T17:33:05.302Z,13.28
2022-10-31T17:35:13.466Z,13.25
2022-10-31T17:37:18.807Z,13.25
2022-10-31T17:39:23.803Z,13.26
2022-10-31T17:41:29.799Z,13.21
2022-10-31T17:43:35.834Z,13.15
2022-10-31T17:45:42.823Z,13.10
2022-10-31T17:47:50.284Z,13.05
2022-10-31T17:49:55.208Z,13.05
2022-10-31T17:52:00.089Z,13.07
2022-10-31T17:54:06.014Z,13.07
2022-10-31T17:56:11.643Z,13.07
2022-10-31T17:58:17.222Z,13.08
2022-10-31T18:00:22.603Z,13.08
2022-10-31T18:02:28.565Z,13.09
2022-10-31T18:04:33.854Z,13.09
2022-10-31T18:06:38.985Z,13.12
2022-10-31T18:08:44.759Z,13.13
2022-10-31T18:10:49.596Z,13.14
2022-10-31T18:12:55.094Z,13.14
2022-10-31T18:15:00.569Z,13.16
2022-10-31T18:17:07.233Z,13.16
2022-10-31T18:19:15.327Z,13.13
2022-10-31T18:21:20.133Z,13.09
2022-10-31T18:23:24.938Z,13.08
2022-10-31T18:25:34.334Z,13.08
2022-10-31T18:27:39.753Z,13.07
2022-10-31T18:29:47.780Z,13.01
2022-10-31T18:31:52.671Z,12.98
2022-10-31T18:33:58.732Z,12.97
2022-10-31T18:36:09.409Z,12.95
2022-10-31T18:38:15.940Z,12.94
2022-10-31T18:40:20.633Z,12.93
2022-10-31T18:42:27.337Z,12.92
2022-10-31T18:44:32.932Z,12.92
2022-10-31T18:46:38.661Z,12.94
2022-10-31T18:48:46.100Z,12.97
2022-10-31T18:50:51.477Z,12.99
2022-10-31T18:53:00.207Z,12.96
2022-10-31T18:55:06.863Z,12.97
2022-10-31T18:57:12.378Z,12.96
2022-10-31T18:59:18.281Z,12.97
2022-10-31T19:01:24.055Z,12.91
2022-10-31T19:03:29.073Z,12.88
2022-10-31T19:05:34.981Z,12.84
2022-10-31T19:07:40.804Z,12.82
2022-10-31T19:09:47.292Z,12.81
2022-10-31T19:11:52.058Z,12.82
2022-10-31T19:14:01.539Z,12.80
2022-10-31T19:16:10.419Z,12.82
2022-10-31T19:18:18.906Z,12.83
2022-10-31T19:20:27.106Z,12.85
2022-10-31T19:22:34.345Z,12.87
2022-10-31T19:24:40.646Z,12.89
2022-10-31T19:26:45.972Z,12.89
2022-10-31T19:28:50.713Z,12.91
2022-10-31T19:30:55.994Z,12.91
2022-10-31T19:33:00.783Z,12.89
2022-10-31T19:35:07.246Z,12.86
2022-10-31T19:37:16.011Z,12.82
2022-10-31T19:39:25.652Z,12.78
2022-10-31T19:41:32.828Z,12.77
2022-10-31T19:43:38.719Z,12.76
2022-10-31T19:45:55.009Z,12.74
2022-10-31T19:48:01.039Z,12.72
2022-10-31T19:50:11.289Z,12.70
2022-10-31T19:52:16.460Z,12.70
2022-10-31T19:54:21.585Z,12.68
2022-10-31T19:56:27.587Z,12.68
2022-10-31T19:58:34.139Z,12.67
2022-10-31T20:00:40.864Z,12.67
2022-10-31T20:02:47.578Z,12.68
2022-10-31T20:04:52.457Z,12.65
2022-10-31T20:06:57.340Z,12.65
2022-10-31T20:09:03.908Z,12.68
2022-10-31T20:11:08.618Z,12.67
2022-10-31T20:13:13.936Z,12.67
2022-10-31T20:15:19.026Z,12.67
2022-10-31T20:17:24.243Z,12.65
2022-10-31T20:19:29.027Z,12.66
2022-10-31T20:21:38.122Z,12.64
2022-10-31T20:23:44.769Z,12.64
2022-10-31T20:25:52.262Z,12.63
2022-10-31T20:27:58.105Z,12.61
2022-10-31T20:30:03.594Z,12.57
2022-10-31T20:32:08.655Z,12.55
2022-10-31T20:34:14.529Z,12.58
2022-10-31T20:36:19.851Z,12.58
2022-10-31T20:38:25.176Z,12.56
2022-10-31T20:40:34.173Z,12.54
2022-10-31T20:42:40.288Z,12.54
2022-10-31T20:44:45.444Z,12.55
2022-10-31T20:46:50.561Z,12.55
2022-10-31T20:48:56.246Z,12.56
2022-10-31T20:51:04.642Z,12.56
2022-10-31T20:53:13.997Z,12.58
2022-10-31T20:55:19.879Z,12.57
2022-10-31T20:57:24.651Z,12.58
2022-10-31T20:59:30.993Z,12.58
2022-10-31T21:01:36.054Z,12.57
2022-10-31T21:03:42.284Z,12.56
2022-10-31T21:05:56.850Z,12.55
2022-10-31T21:08:01.981Z,12.51
2022-10-31T21:10:08.482Z,12.50
2022-10-31T21:12:13.642Z,12.51
2022-10-31T21:14:18.945Z,12.49
2022-10-31T21:16:25.419Z,12.49
2022-10-31T21:18:31.368Z,12.47
2022-10-31T21:20:38.648Z,12.48
2022-10-31T21:22:43.386Z,12.49
2022-10-31T21:24:48.020Z,12.53
2022-10-31T21:26:53.849Z,12.56
2022-10-31T21:28:59.852Z,12.59
2022-10-31T21:31:10.216Z,12.63
2022-10-31T21:33:15.547Z,12.65
2022-10-31T21:35:20.147Z,12.64
2022-10-31T21:37:24.902Z,12.60
2022-10-31T21:39:29.554Z,12.56
2022-10-31T21:41:34.728Z,12.53
2022-10-31T21:43:40.796Z,12.52
2022-10-31T21:45:45.474Z,12.54
2022-10-31T21:47:50.379Z,12.56
2022-10-31T21:49:55.002Z,12.55
2022-10-31T21:51:59.916Z,12.55
2022-10-31T21:54:04.760Z,12.51
2022-10-31T21:56:12.420Z,12.48
2022-10-31T21:58:17.046Z,12.45
2022-10-31T22:00:21.875Z,12.44
2022-10-31T22:02:26.618Z,12.43
2022-10-31T22:04:33.259Z,12.43
2022-10-31T22:06:38.497Z,12.41
2022-10-31T22:08:43.309Z,12.43
2022-10-31T22:10:47.968Z,12.41
2022-10-31T22:12:52.594Z,12.40
2022-10-31T22:14:57.209Z,12.39
2022-10-31T22:17:02.526Z,12.37
2022-10-31T22:19:08.398Z,12.36
2022-10-31T22:21:16.267Z,12.37
2022-10-31T22:23:21.274Z,12.36
2022-10-31T22:25:26.262Z,12.37
2022-10-31T22:27:32.372Z,12.35
2022-10-31T22:29:37.009Z,12.35
2022-10-31T22:31:43.801Z,12.37
2022-10-31T22:33:49.073Z,12.38
2022-10-31T22:35:53.765Z,12.39
2022-10-31T22:37:58.442Z,12.39
2022-10-31T22:40:03.355Z,12.39
2022-10-31T22:42:08.139Z,12.37
2022-10-31T22:44:12.845Z,12.37
2022-10-31T22:46:19.379Z,12.36
2022-10-31T22:48:24.099Z,12.33
2022-10-31T22:50:28.821Z,12.33
2022-10-31T22:52:33.583Z,12.33
2022-10-31T22:54:38.223Z,12.32
2022-10-31T22:56:43.495Z,12.34
2022-10-31T22:58:48.917Z,12.37
2022-10-31T23:00:53.602Z,12.39
2022-10-31T23:02:58.256Z,12.40
2022-10-31T23:05:03.090Z,12.42
2022-10-31T23:07:07.828Z,12.43
2022-10-31T23:09:16.327Z,12.44
2022-10-31T23:11:22.902Z,12.44
2022-10-31T23:13:27.604Z,12.42
2022-10-31T23:15:32.250Z,12.43
2022-10-31T23:17:36.908Z,12.44
2022-10-31T23:19:41.696Z,12.44
2022-10-31T23:21:47.699Z,12.46
2022-10-31T23:23:52.476Z,12.49
2022-10-31T23:25:57.101Z,12.52
2022-10-31T23:28:01.685Z,12.54
2022-10-31T23:30:08.176Z,12.54
2022-10-31T23:32:15.712Z,12.51
2022-10-31T23:34:20.431Z,12.51
2022-10-31T23:36:25.088Z,12.52
2022-10-31T23:38:29.782Z,12.52
2022-10-31T23:40:34.394Z,12.53
2022-10-31T23:42:39.027Z,12.52
2022-10-31T23:44:43.714Z,12.52
2022-10-31T23:46:48.376Z,12.56
2022-10-31T23:48:53.001Z,12.58
2022-10-31T23:50:57.716Z,12.57
2022-10-31T23:53:02.394Z,12.57
2022-10-31T23:55:08.030Z,12.57
2022-10-31T23:57:14.407Z,12.57
2022-10-31T23:59:19.070Z,12.58
